Bonners Ferry, Idaho
Current Conditions -  °F | °C
As of 5:15 PM on Sunday 23 Nov 2014 (Local Time) from K65S Reporting Station
Overcast Overcast  
Wind Chill: 29°   Ceiling: 6000
Heat Index: 36°   Visibility: 10mi
Dew Point: 32°   Wind: 9mph
Humidity: 87%   Direction: 250°WSW
Pressure: 29.92"   Gusts: 16mph
Location:  48.69°N, 116.32°W
Report Text: K65S 240115Z AUTO 25008G14KT 210V270 10SM OVC060 02/00 A2992 RMK AO2
Loading
Personal Weather Stations






























Interactive Weather Map New forecast layout! Learn more

10-Day Weather Forecast

Advertisements
Track Severe Weather on mobile